Hai Hua — XUDB9 — position and weather

sailwx.info

Track history (hours):
 
Tides and Currents Weather Stations Pressure Air Temp Water Temp Dewpoint Dewpoint Depression Visibility Wind Speed Wind Dir Waves Ship Positions

Hai Hua

Last reported at 2014-Oct-22 02:30 UTC. Time now 2014-Oct-22 03:19 UTC.
Position N 31°59' E 120°37'.

Length 69 m; draft 5.3 m.

Type: Cargo ship. MMSI: 515171000.

Date/timePositionNaut miles runAvg speedWind from/ knotsBaromVisibWave heightAir tempDewpointWater temp
2014-Oct-22 02:30N 31°59' E 120°37'0 0.0
2014-Oct-22 01:33N 31°59' E 120°37'0 0.0
2014-Oct-22 00:30N 31°59' E 120°37'0 0.0
2014-Oct-21 23:30N 31°59' E 120°37'0 0.0
2014-Oct-21 22:33N 31°59' E 120°37'0 0.0
2014-Oct-21 21:33N 31°59' E 120°37'0 0.0
2014-Oct-21 20:33N 31°59' E 120°37'0 0.0
2014-Oct-21 19:33N 31°59' E 120°37'0 0.0
2014-Oct-21 18:30N 31°59' E 120°37'0 0.0
2014-Oct-21 17:33N 31°59' E 120°37'0 0.0
2014-Oct-21 16:33N 31°59' E 120°37'0 0.0
2014-Oct-21 15:33N 31°59' E 120°37'0 0.0
2014-Oct-21 14:33N 31°59' E 120°37'0 0.0
2014-Oct-21 13:33N 31°59' E 120°37'0 0.0
2014-Oct-21 12:33N 31°59' E 120°37'0 0.0
2014-Oct-21 11:33N 31°59' E 120°37'0 0.0
2014-Oct-21 10:24N 31°59' E 120°37'0 0.0
2014-Oct-21 09:33N 31°59' E 120°37'0 0.1
2014-Oct-21 08:33N 31°59' E 120°37'6 5.7
2014-Oct-21 07:33N 32°00' E 120°43'1 1.2
2014-Oct-21 06:28N 31°60' E 120°45'0 0.0
2014-Oct-21 05:19N 31°60' E 120°45'0 0.0
2014-Oct-21 00:31N 31°60' E 120°45'0 0.0
2014-Oct-20 23:25N 31°60' E 120°45'0 0.0
2014-Oct-20 22:31N 31°60' E 120°45'0 0.0
2014-Oct-20 20:22N 31°60' E 120°45'0 0.0
2014-Oct-20 16:16N 31°60' E 120°45'0 0.0
2014-Oct-20 15:28N 31°60' E 120°45'0 0.1
2014-Oct-20 14:31N 31°60' E 120°45'0 0.0
2014-Oct-20 13:28N 31°60' E 120°45'0 0.0
2014-Oct-20 10:28N 31°60' E 120°45'0 0.0
2014-Oct-20 09:31N 31°60' E 120°45'0 0.0
2014-Oct-20 08:31N 31°60' E 120°45'0 0.0
2014-Oct-20 07:25N 31°60' E 120°45'0 0.1
2014-Oct-20 06:19N 31°60' E 120°45'0 0.0
2014-Oct-20 05:31N 31°60' E 120°45'0 0.0
2014-Oct-20 04:28N 31°60' E 120°45'0 0.0
2014-Oct-20 03:28N 31°60' E 120°45'6 6.6
2014-Oct-20 02:33N 31°58' E 120°51'10 9.6
2014-Oct-20 01:34N 31°49' E 120°55'8 8.2
2014-Oct-20 00:33N 31°46' E 121°04'9 8.7
2014-Oct-19 23:33N 31°40' E 121°12'4 3.6
2014-Oct-19 22:31N 31°38' E 121°16'0 0.0
2014-Oct-19 21:31N 31°38' E 121°16'0 0.0
2014-Oct-19 20:25N 31°38' E 121°16'0 0.0
2014-Oct-19 19:25N 31°38' E 121°16'0 0.0
2014-Oct-19 18:28N 31°38' E 121°16'3 3.6
2014-Oct-19 17:33N 31°36' E 121°18'9 9.3
2014-Oct-19 16:33N 31°30' E 121°26'7 7.3
2014-Oct-19 15:33N 31°25' E 121°32'3 3.5
2014-Oct-19 14:33N 31°22' E 121°30'0 0.0
2014-Oct-19 13:26N 31°22' E 121°30'0 0.0
2014-Oct-19 12:20N 31°22' E 121°30'0 0.0
2014-Oct-19 11:32N 31°22' E 121°30'0 0.0
2014-Oct-19 10:32N 31°22' E 121°30'0 0.0
2014-Oct-19 09:32N 31°22' E 121°30'0 0.0
2014-Oct-19 08:20N 31°22' E 121°30'0 0.0
2014-Oct-19 07:14N 31°22' E 121°30'0 0.0
2014-Oct-19 06:32N 31°22' E 121°30'0 0.0
2014-Oct-19 05:32N 31°22' E 121°30'1 1.5
2014-Oct-19 04:33N 31°23' E 121°30'5 5.0
2014-Oct-19 03:33N 31°23' E 121°36'10 9.7
2014-Oct-19 02:32N 31°17' E 121°45'  
2014-Oct-15 22:29N 33°60' E 132°44'101 8.5
2014-Oct-15 10:34N 34°08' E 134°45'  
Track history (hours):
 
Tides and Currents Weather Stations Pressure Air Temp Water Temp Dewpoint Dewpoint Depression Visibility Wind Speed Wind Dir Waves Ship Positions

Hai Hua

Last reported at 2014-Oct-22 02:30 UTC. Time now 2014-Oct-22 03:19 UTC.
Position N 31°59' E 120°37'.

Length 69 m; draft 5.3 m.

Type: Cargo ship. MMSI: 515171000.

Date/timePositionNaut miles runAvg speedWind from/ knotsBaromVisibWave heightAir tempDewpointWater temp
2014-Oct-22 02:30N 31°59' E 120°37'0 0.0
2014-Oct-22 01:33N 31°59' E 120°37'0 0.0
2014-Oct-22 00:30N 31°59' E 120°37'0 0.0
2014-Oct-21 23:30N 31°59' E 120°37'0 0.0
2014-Oct-21 22:33N 31°59' E 120°37'0 0.0
2014-Oct-21 21:33N 31°59' E 120°37'0 0.0
2014-Oct-21 20:33N 31°59' E 120°37'0 0.0
2014-Oct-21 19:33N 31°59' E 120°37'0 0.0
2014-Oct-21 18:30N 31°59' E 120°37'0 0.0
2014-Oct-21 17:33N 31°59' E 120°37'0 0.0
2014-Oct-21 16:33N 31°59' E 120°37'0 0.0
2014-Oct-21 15:33N 31°59' E 120°37'0 0.0
2014-Oct-21 14:33N 31°59' E 120°37'0 0.0
2014-Oct-21 13:33N 31°59' E 120°37'0 0.0
2014-Oct-21 12:33N 31°59' E 120°37'0 0.0
2014-Oct-21 11:33N 31°59' E 120°37'0 0.0
2014-Oct-21 10:24N 31°59' E 120°37'0 0.0
2014-Oct-21 09:33N 31°59' E 120°37'0 0.1
2014-Oct-21 08:33N 31°59' E 120°37'6 5.7
2014-Oct-21 07:33N 32°00' E 120°43'1 1.2
2014-Oct-21 06:28N 31°60' E 120°45'0 0.0
2014-Oct-21 05:19N 31°60' E 120°45'0 0.0
2014-Oct-21 00:31N 31°60' E 120°45'0 0.0
2014-Oct-20 23:25N 31°60' E 120°45'0 0.0
2014-Oct-20 22:31N 31°60' E 120°45'0 0.0
2014-Oct-20 20:22N 31°60' E 120°45'0 0.0
2014-Oct-20 16:16N 31°60' E 120°45'0 0.0
2014-Oct-20 15:28N 31°60' E 120°45'0 0.1
2014-Oct-20 14:31N 31°60' E 120°45'0 0.0
2014-Oct-20 13:28N 31°60' E 120°45'0 0.0
2014-Oct-20 10:28N 31°60' E 120°45'0 0.0
2014-Oct-20 09:31N 31°60' E 120°45'0 0.0
2014-Oct-20 08:31N 31°60' E 120°45'0 0.0
2014-Oct-20 07:25N 31°60' E 120°45'0 0.1
2014-Oct-20 06:19N 31°60' E 120°45'0 0.0
2014-Oct-20 05:31N 31°60' E 120°45'0 0.0
2014-Oct-20 04:28N 31°60' E 120°45'0 0.0
2014-Oct-20 03:28N 31°60' E 120°45'6 6.6
2014-Oct-20 02:33N 31°58' E 120°51'10 9.6
2014-Oct-20 01:34N 31°49' E 120°55'8 8.2
2014-Oct-20 00:33N 31°46' E 121°04'9 8.7
2014-Oct-19 23:33N 31°40' E 121°12'4 3.6
2014-Oct-19 22:31N 31°38' E 121°16'0 0.0
2014-Oct-19 21:31N 31°38' E 121°16'0 0.0
2014-Oct-19 20:25N 31°38' E 121°16'0 0.0
2014-Oct-19 19:25N 31°38' E 121°16'0 0.0
2014-Oct-19 18:28N 31°38' E 121°16'3 3.6
2014-Oct-19 17:33N 31°36' E 121°18'9 9.3
2014-Oct-19 16:33N 31°30' E 121°26'7 7.3
2014-Oct-19 15:33N 31°25' E 121°32'3 3.5
2014-Oct-19 14:33N 31°22' E 121°30'0 0.0
2014-Oct-19 13:26N 31°22' E 121°30'0 0.0
2014-Oct-19 12:20N 31°22' E 121°30'0 0.0
2014-Oct-19 11:32N 31°22' E 121°30'0 0.0
2014-Oct-19 10:32N 31°22' E 121°30'0 0.0
2014-Oct-19 09:32N 31°22' E 121°30'0 0.0
2014-Oct-19 08:20N 31°22' E 121°30'0 0.0
2014-Oct-19 07:14N 31°22' E 121°30'0 0.0
2014-Oct-19 06:32N 31°22' E 121°30'0 0.0
2014-Oct-19 05:32N 31°22' E 121°30'1 1.5
2014-Oct-19 04:33N 31°23' E 121°30'5 5.0
2014-Oct-19 03:33N 31°23' E 121°36'10 9.7
2014-Oct-19 02:32N 31°17' E 121°45'  
2014-Oct-15 22:29N 33°60' E 132°44'101 8.5
2014-Oct-15 10:34N 34°08' E 134°45'  

Dump ship's entire track history